Time;durP1;ratioP1;P1;durP2;ratioP2;P2;SDS_P1;SDS_P2;PMS_P1;PMS_P2;Temp;Humidity;BMP_temperature;BMP_pressure;BME280_temperature;BME280_humidity;BME280_pressure;Samples;Min_cycle;Max_cycle;Signal;HPM_P1;HPM_P2
2022/06/13 00:00:57;;;;;;;8.20;3.10;;;16.20;99.90;;;;;;5060628;28;20204;-61
2022/06/13 00:03:24;;;;;;;10.40;2.93;;;16.00;99.90;;;;;;5049779;28;20255;-61
2022/06/13 00:05:51;;;;;;;7.90;3.20;;;16.00;99.90;;;;;;5057708;28;20597;-61
2022/06/13 00:08:18;;;;;;;6.73;2.70;;;15.90;99.90;;;;;;5042822;28;20257;-61
2022/06/13 00:10:45;;;;;;;4.43;2.37;;;15.90;99.90;;;;;;5060940;28;20223;-62
2022/06/13 00:13:12;;;;;;;8.97;3.57;;;15.80;99.90;;;;;;5061851;28;20257;-62
2022/06/13 00:15:39;;;;;;;12.07;3.80;;;15.80;99.90;;;;;;5059860;28;20191;-61
2022/06/13 00:18:06;;;;;;;8.37;3.30;;;15.70;99.90;;;;;;5061305;28;20261;-61
2022/06/13 00:20:33;;;;;;;6.17;3.33;;;15.60;1.00;;;;;;5057835;28;20225;-60
2022/06/13 00:23:00;;;;;;;7.63;3.27;;;15.60;1.00;;;;;;5044925;28;20196;-62
2022/06/13 00:25:27;;;;;;;7.83;3.37;;;15.50;1.00;;;;;;5061364;28;20199;-60
2022/06/13 00:27:55;;;;;;;6.97;2.97;;;15.50;1.00;;;;;;5051804;28;20195;-61
2022/06/13 00:30:23;;;;;;;5.60;3.33;;;15.50;1.00;;;;;;5043131;28;20560;-61
2022/06/13 00:32:50;;;;;;;8.07;3.57;;;15.40;1.00;;;;;;5060080;28;20211;-61
2022/06/13 00:35:18;;;;;;;11.97;3.50;;;15.40;1.00;;;;;;5065866;28;20224;-61
2022/06/13 00:37:45;;;;;;;7.47;2.77;;;15.40;1.00;;;;;;5061230;28;20232;-61
2022/06/13 00:40:12;;;;;;;9.73;3.00;;;15.40;1.00;;;;;;5057231;28;20217;-61
2022/06/13 00:42:40;;;;;;;6.63;3.33;;;15.10;1.00;;;;;;5059595;28;20256;-61
2022/06/13 00:45:13;;;;;;;10.40;3.20;;;15.00;1.00;;;;;;5060626;28;20298;-61
2022/06/13 00:47:42;;;;;;;9.33;3.27;;;14.90;1.00;;;;;;5050115;28;20219;-61
2022/06/13 00:50:14;;;;;;;8.13;3.17;;;14.80;1.00;;;;;;5059820;28;20241;-61
2022/06/13 00:52:54;;;;;;;6.90;3.40;;;14.80;1.00;;;;;;5063559;28;20219;-62
2022/06/13 00:55:36;;;;;;;8.27;3.50;;;14.70;1.00;;;;;;5064296;28;20194;-62
2022/06/13 00:58:04;;;;;;;9.83;3.37;;;14.70;1.00;;;;;;5064134;28;20187;-62
2022/06/13 01:00:34;;;;;;;9.53;3.87;;;14.70;1.00;;;;;;5063331;28;20244;-61
2022/06/13 01:03:02;;;;;;;11.40;3.80;;;14.60;1.00;;;;;;5063200;28;20195;-60
2022/06/13 01:05:33;;;;;;;11.83;3.70;;;14.10;1.00;;;;;;5064413;28;20202;-61
2022/06/13 01:08:01;;;;;;;7.83;3.60;;;14.10;1.00;;;;;;5063254;28;20199;-60
2022/06/13 01:13:15;;;;;;;10.00;3.07;;;14.00;1.00;;;;;;5066275;28;20191;-60
2022/06/13 01:15:52;;;;;;;8.40;3.50;;;14.10;1.00;;;;;;5066020;28;20214;-61
2022/06/13 01:18:25;;;;;;;6.30;3.20;;;14.20;1.00;;;;;;5065776;28;20254;-61
2022/06/13 01:21:33;;;;;;;9.60;3.47;;;14.30;1.00;;;;;;5063510;28;20300;-62
2022/06/13 01:24:28;;;;;;;7.10;3.50;;;14.30;1.00;;;;;;5012924;28;20218;-61
2022/06/13 01:27:10;;;;;;;13.13;3.60;;;14.30;1.00;;;;;;5064342;28;20594;-61
2022/06/13 01:29:40;;;;;;;10.07;3.20;;;14.30;1.00;;;;;;5060485;28;20257;-61
2022/06/13 01:32:07;;;;;;;7.30;2.90;;;14.30;1.00;;;;;;5065462;28;20227;-61
2022/06/13 01:34:51;;;;;;;9.03;3.80;;;14.30;1.00;;;;;;5060965;28;20210;-61
2022/06/13 01:37:52;;;;;;;9.37;3.30;;;14.30;1.00;;;;;;5062870;28;20191;-61
2022/06/13 01:40:58;;;;;;;7.87;3.10;;;14.30;1.00;;;;;;5062951;28;20283;-61
2022/06/13 01:43:55;;;;;;;8.00;3.30;;;14.30;1.00;;;;;;5029902;28;20191;-62
2022/06/13 01:46:31;;;;;;;8.00;3.47;;;14.20;1.00;;;;;;5064699;28;20248;-61
2022/06/13 01:49:10;;;;;;;8.27;3.07;;;14.20;1.00;;;;;;5052193;28;20294;-62
2022/06/13 01:51:54;;;;;;;7.67;3.47;;;14.20;1.00;;;;;;5063150;28;20680;-60
2022/06/13 01:54:21;;;;;;;8.50;3.60;;;14.20;1.00;;;;;;5064940;28;20199;-62
2022/06/13 01:57:08;;;;;;;8.10;3.50;;;14.00;1.00;;;;;;5063047;28;20200;-61
2022/06/13 02:00:03;;;;;;;5.93;3.37;;;14.00;1.00;;;;;;5061966;28;20200;-61
2022/06/13 02:02:52;;;;;;;6.83;3.73;;;13.90;1.00;;;;;;5062202;28;20219;-61
2022/06/13 02:05:31;;;;;;;9.13;3.60;;;13.80;1.00;;;;;;5064146;28;20187;-61
2022/06/13 02:08:22;;;;;;;7.73;3.40;;;13.70;1.00;;;;;;5064683;28;20205;-60
2022/06/13 02:10:56;;;;;;;10.50;3.83;;;13.80;1.00;;;;;;5064255;28;20207;-61
2022/06/13 02:13:37;;;;;;;10.43;4.00;;;13.80;1.00;;;;;;5055666;28;20214;-61
2022/06/13 02:16:15;;;;;;;7.17;3.77;;;13.80;1.00;;;;;;5064898;28;20237;-61
2022/06/13 02:18:59;;;;;;;9.97;4.30;;;13.60;46.10;;;;;;5062253;28;20611;-61
2022/06/13 02:21:40;;;;;;;11.00;4.33;;;13.40;99.90;;;;;;5066263;28;20220;-61
2022/06/13 02:24:14;;;;;;;9.83;4.23;;;13.40;99.90;;;;;;5061188;28;20249;-61
2022/06/13 02:26:45;;;;;;;9.13;4.33;;;13.30;99.90;;;;;;5058511;28;20226;-61
2022/06/13 02:29:22;;;;;;;13.03;4.60;;;13.10;99.90;;;;;;5059078;28;20503;-61
2022/06/13 02:32:01;;;;;;;16.00;4.50;;;13.30;99.90;;;;;;5061835;28;20211;-62
2022/06/13 02:34:40;;;;;;;10.30;4.13;;;13.20;99.90;;;;;;5063925;28;20213;-62
2022/06/13 02:37:13;;;;;;;10.77;4.00;;;13.20;99.90;;;;;;5064346;28;20194;-62
2022/06/13 02:39:52;;;;;;;13.13;4.07;;;13.20;99.90;;;;;;5063458;28;20195;-61
2022/06/13 02:42:25;;;;;;;8.53;3.90;;;13.40;99.90;;;;;;5061823;28;20198;-61
2022/06/13 02:45:05;;;;;;;9.53;4.47;;;13.50;99.90;;;;;;5061545;28;20196;-62
2022/06/13 02:47:39;;;;;;;10.03;3.97;;;13.60;37.20;;;;;;5058772;28;20272;-62
2022/06/13 02:50:23;;;;;;;11.03;4.57;;;13.70;29.30;;;;;;5060713;28;20206;-62
2022/06/13 02:52:56;;;;;;;9.87;3.93;;;13.70;28.50;;;;;;5060956;28;20215;-62
2022/06/13 02:55:24;;;;;;;8.63;4.63;;;13.60;41.10;;;;;;5061402;28;20657;-61
2022/06/13 02:58:10;;;;;;;10.07;4.13;;;13.60;54.00;;;;;;5062467;28;20658;-61
2022/06/13 03:00:50;;;;;;;11.23;4.63;;;13.50;99.90;;;;;;5060267;28;20288;-61
2022/06/13 03:03:56;;;;;;;11.73;4.97;;;13.30;99.90;;;;;;5060812;28;20195;-61
2022/06/13 03:06:35;;;;;;;9.63;4.63;;;13.30;99.90;;;;;;5057407;28;20207;-61
2022/06/13 03:09:10;;;;;;;16.53;4.90;;;13.20;99.90;;;;;;5039335;28;20199;-60
2022/06/13 03:11:39;;;;;;;10.77;4.23;;;13.30;99.90;;;;;;5036102;28;20198;-60
2022/06/13 03:14:21;;;;;;;9.57;4.83;;;13.10;99.90;;;;;;5059152;28;20176;-60
2022/06/13 03:17:05;;;;;;;12.73;4.70;;;13.00;99.90;;;;;;5059104;28;20195;-60
2022/06/13 03:19:47;;;;;;;8.10;4.47;;;13.00;99.90;;;;;;5052241;28;20258;-60
2022/06/13 03:22:17;;;;;;;7.90;3.90;;;12.90;99.90;;;;;;5036785;28;20801;-60
2022/06/13 03:24:50;;;;;;;10.00;4.37;;;12.90;99.90;;;;;;5038184;28;20710;-60
2022/06/13 03:27:28;;;;;;;8.93;4.30;;;12.90;99.90;;;;;;5044076;28;20196;-61
2022/06/13 03:30:04;;;;;;;10.47;4.13;;;13.10;99.90;;;;;;5037765;28;20200;-60
2022/06/13 03:32:38;;;;;;;8.53;4.00;;;13.30;99.90;;;;;;5038122;28;20212;-60
2022/06/13 03:35:11;;;;;;;7.77;4.23;;;13.50;99.90;;;;;;5039905;28;20201;-59
2022/06/13 03:37:49;;;;;;;10.63;6.87;;;14.00;51.60;;;;;;5039372;28;20757;-60
2022/06/13 03:40:23;;;;;;;29.40;17.10;;;14.20;14.80;;;;;;5038617;28;20223;-60
2022/06/13 03:43:03;;;;;;;26.70;17.33;;;14.40;1.00;;;;;;5052770;28;20265;-60
2022/06/13 03:45:37;;;;;;;19.30;11.80;;;14.60;1.00;;;;;;5052041;28;20580;-59
2022/06/13 03:48:17;;;;;;;19.47;10.47;;;14.90;1.00;;;;;;5039728;28;20192;-60
2022/06/13 03:50:50;;;;;;;8.70;5.37;;;14.80;1.00;;;;;;5036180;28;20279;-59
2022/06/13 03:53:25;;;;;;;14.10;9.73;;;14.90;1.00;;;;;;5039758;28;20295;-59
2022/06/13 03:56:28;;;;;;;12.00;5.50;;;14.60;1.00;;;;;;5053287;28;20218;-59
2022/06/13 03:59:00;;;;;;;7.57;3.73;;;14.70;1.00;;;;;;5041441;28;20273;-60
2022/06/13 04:01:33;;;;;;;10.97;4.67;;;14.70;1.00;;;;;;5034638;28;20219;-59
2022/06/13 04:04:01;;;;;;;9.67;5.33;;;14.60;1.00;;;;;;5034189;28;20188;-60
2022/06/13 04:06:40;;;;;;;12.47;5.60;;;14.70;1.00;;;;;;5049259;28;20288;-60
2022/06/13 04:09:20;;;;;;;14.90;10.83;;;14.80;1.00;;;;;;5034952;28;21078;-60
2022/06/13 04:11:47;;;;;;;19.97;10.20;;;15.10;1.00;;;;;;5037430;28;20199;-59
2022/06/13 04:14:29;;;;;;;18.07;10.47;;;15.30;1.00;;;;;;5052599;28;20354;-59
2022/06/13 04:17:41;;;;;;;18.40;11.77;;;15.70;1.00;;;;;;5036094;28;20206;-60
2022/06/13 04:20:41;;;;;;;15.80;9.93;;;15.70;1.00;;;;;;4990072;28;20295;-59
2022/06/13 04:23:22;;;;;;;12.20;7.07;;;16.00;1.00;;;;;;5034265;28;20860;-60
2022/06/13 04:25:58;;;;;;;9.75;5.63;;;16.30;1.00;;;;;;5032173;28;20269;-59
2022/06/13 04:28:46;;;;;;;9.32;4.35;;;16.40;1.00;;;;;;5050503;28;20521;-59
2022/06/13 04:31:18;;;;;;;18.92;5.28;;;16.40;1.00;;;;;;5033124;28;20196;-59
2022/06/13 04:33:55;;;;;;;14.98;5.75;;;16.10;1.00;;;;;;5032760;28;20306;-60
2022/06/13 04:36:23;;;;;;;13.60;5.10;;;15.80;41.60;;;;;;5033373;28;20212;-60
2022/06/13 04:38:54;;;;;;;17.53;5.93;;;15.10;99.90;;;;;;5034262;28;20219;-60
2022/06/13 04:41:27;;;;;;;11.43;5.00;;;14.90;99.90;;;;;;5048644;28;20668;-60
2022/06/13 04:43:57;;;;;;;13.37;5.63;;;14.70;99.90;;;;;;5034201;28;20203;-60
2022/06/13 04:46:27;;;;;;;12.47;5.03;;;14.70;51.40;;;;;;5048642;28;20200;-59
2022/06/13 04:48:58;;;;;;;13.83;4.73;;;14.90;1.00;;;;;;5035266;28;20195;-59
2022/06/13 04:51:30;;;;;;;10.10;4.60;;;15.00;1.00;;;;;;5049728;28;20219;-59
2022/06/13 04:53:57;;;;;;;11.27;5.33;;;;;;;;;;5050342;28;20223;-59
2022/06/13 04:56:25;;;;;;;10.83;5.17;;;14.80;1.00;;;;;;5021754;28;20218;-59
2022/06/13 04:58:55;;;;;;;8.90;4.83;;;14.60;1.00;;;;;;5039039;28;20192;-60
2022/06/13 05:01:29;;;;;;;12.27;5.13;;;13.90;99.90;;;;;;5036506;28;20246;-60
2022/06/13 05:04:00;;;;;;;10.63;5.30;;;13.90;99.90;;;;;;5050992;28;20196;-59
2022/06/13 05:06:30;;;;;;;11.10;5.50;;;14.10;99.90;;;;;;5036936;28;20207;-59
2022/06/13 05:09:05;;;;;;;11.43;5.10;;;14.30;1.00;;;;;;5040213;28;20203;-59
2022/06/13 05:11:49;;;;;;;13.40;5.97;;;14.40;65.80;;;;;;5036645;28;20638;-59
2022/06/13 05:14:22;;;;;;;16.77;7.40;;;13.80;1.00;;;;;;5032532;28;20223;-59
2022/06/13 05:17:20;;;;;;;14.07;7.97;;;13.80;1.00;;;;;;5029520;28;20196;-59
2022/06/13 05:20:05;;;;;;;12.47;6.73;;;13.80;1.00;;;;;;5052323;28;20279;-59
2022/06/13 05:22:55;;;;;;;11.07;6.20;;;13.90;1.00;;;;;;5053112;28;20202;-59
2022/06/13 05:25:31;;;;;;;13.20;5.90;;;13.90;1.00;;;;;;5054697;28;20728;-59
2022/06/13 05:27:58;;;;;;;11.23;6.23;;;14.30;99.90;;;;;;5056751;28;20671;-58
2022/06/13 05:30:26;;;;;;;17.77;6.37;;;14.40;99.90;;;;;;5052745;28;20256;-59
2022/06/13 05:32:55;;;;;;;16.33;7.13;;;13.90;1.00;;;;;;5056493;28;20226;-60
2022/06/13 05:35:27;;;;;;;12.73;7.27;;;13.90;1.00;;;;;;5058092;28;20195;-61
2022/06/13 05:37:56;;;;;;;16.10;7.50;;;14.10;1.00;;;;;;5057549;28;20254;-60
2022/06/13 05:40:24;;;;;;;20.00;9.20;;;14.10;99.90;;;;;;5058775;28;20248;-61
2022/06/13 05:42:51;;;;;;;13.63;6.03;;;14.40;99.90;;;;;;5057451;28;20195;-60
2022/06/13 05:45:22;;;;;;;10.20;5.60;;;14.90;55.60;;;;;;5043594;28;20226;-61
2022/06/13 05:47:52;;;;;;;14.47;5.73;;;14.90;1.00;;;;;;5062807;28;20195;-61
2022/06/13 05:50:29;;;;;;;12.43;6.33;;;14.80;99.90;;;;;;5062037;28;20179;-61
2022/06/13 05:52:56;;;;;;;16.37;7.07;;;14.80;44.90;;;;;;5059297;28;20207;-61
2022/06/13 05:55:23;;;;;;;9.27;5.63;;;15.00;1.00;;;;;;5057793;28;20245;-61
2022/06/13 05:58:00;;;;;;;10.10;5.20;;;15.10;6.90;;;;;;5058454;28;20202;-61
2022/06/13 06:00:36;;;;;;;9.77;5.30;;;16.50;1.00;;;;;;5058335;28;20200;-62
2022/06/13 06:03:04;;;;;;;10.75;4.97;;;16.90;1.00;;;;;;5046163;28;20198;-60
2022/06/13 06:05:31;;;;;;;9.10;5.23;;;17.00;99.90;;;;;;5047299;28;20267;-61
2022/06/13 06:07:58;;;;;;;13.07;6.00;;;16.20;1.00;;;;;;5059514;28;20686;-61
2022/06/13 06:10:32;;;;;;;14.30;5.83;;;16.00;1.00;;;;;;5047878;28;20211;-59
2022/06/13 06:12:59;;;;;;;10.73;6.07;;;15.90;1.00;;;;;;5060834;28;20222;-60
2022/06/13 06:15:26;;;;;;;12.93;6.20;;;15.80;1.00;;;;;;5061794;28;20191;-59
2022/06/13 06:17:53;;;;;;;18.23;6.53;;;15.60;1.00;;;;;;5061448;28;20747;-59
2022/06/13 06:20:23;;;;;;;14.73;5.57;;;15.60;1.00;;;;;;5060232;28;20199;-60
2022/06/13 06:22:50;;;;;;;10.80;6.10;;;15.60;1.00;;;;;;5060064;28;20924;-60
2022/06/13 06:25:17;;;;;;;12.70;5.87;;;15.80;1.00;;;;;;5055511;28;21919;-60
2022/06/13 06:27:44;;;;;;;9.57;5.47;;;15.90;1.00;;;;;;5048695;28;21089;-59
2022/06/13 06:30:15;;;;;;;14.80;6.57;;;16.10;1.00;;;;;;5060143;28;20203;-59
2022/06/13 06:32:42;;;;;;;13.93;5.87;;;16.60;99.90;;;;;;5059630;28;20219;-59
2022/06/13 06:35:09;;;;;;;14.00;6.47;;;16.60;99.90;;;;;;5059983;28;20654;-61
2022/06/13 06:37:40;;;;;;;12.48;5.45;;;18.30;60.50;;;;;;5060426;28;20261;-60
2022/06/13 06:40:10;;;;;;;10.85;5.43;;;18.70;1.00;;;;;;5058757;28;20195;-58
2022/06/13 06:42:36;;;;;;;10.77;5.32;;;19.30;1.00;;;;;;5061717;28;20563;-60
2022/06/13 06:45:23;;;;;;;10.57;5.35;;;19.30;1.00;;;;;;5043396;28;20191;-59
2022/06/13 06:47:50;;;;;;;13.05;4.60;;;19.80;1.00;;;;;;5063775;28;20195;-60
2022/06/13 06:50:20;;;;;;;12.15;4.85;;;22.00;99.90;;;;;;5059832;28;20207;-60
2022/06/13 06:52:48;;;;;;;8.38;4.53;;;21.50;99.90;;;;;;5056676;28;20215;-60
2022/06/13 07:00:57;;;;;;;11.25;5.40;;;21.50;99.90;;;;;;5051464;28;20211;-60
2022/06/13 07:03:24;;;;;;;13.13;5.35;;;21.00;99.90;;;;;;5059693;28;20215;-60
2022/06/13 07:05:52;;;;;;;9.93;5.18;;;22.80;99.90;;;;;;5044622;28;20658;-60
2022/06/13 07:08:19;;;;;;;8.55;4.78;;;24.20;99.90;;;;;;5058735;28;20779;-60
2022/06/13 07:10:49;;;;;;;9.52;5.47;;;22.60;99.90;;;;;;5059511;28;20681;-60
2022/06/13 07:13:19;;;;;;;14.13;4.93;;;21.80;99.90;;;;;;5057956;28;20607;-60
2022/06/13 07:15:48;;;;;;;8.18;4.63;;;20.10;1.00;;;;;;5049376;28;20304;-60
2022/06/13 07:18:18;;;;;;;7.63;3.60;;;22.20;99.90;;;;;;5056280;28;20377;-60
2022/06/13 07:20:45;;;;;;;8.98;3.50;;;25.40;99.90;;;;;;5057571;28;20222;-60
2022/06/13 07:23:12;;;;;;;7.13;3.53;;;28.10;99.90;;;;;;5055976;28;20249;-61
2022/06/13 07:25:39;;;;;;;10.75;3.70;;;28.50;99.90;;;;;;5056428;28;20366;-61
2022/06/13 07:28:06;;;;;;;8.60;3.72;;;30.10;99.90;;;;;;5046958;28;20340;-61
2022/06/13 07:30:34;;;;;;;8.23;4.70;;;27.80;99.90;;;;;;5060578;28;20241;-60
2022/06/13 07:33:01;;;;;;;7.22;3.92;;;28.10;99.90;;;;;;5057605;28;20736;-59
2022/06/13 07:35:29;;;;;;;9.60;3.80;;;29.50;99.90;;;;;;5053568;28;20213;-59
2022/06/13 07:40:47;;;;;;;8.73;4.70;;;29.50;99.90;;;;;;5054058;28;20261;-60
2022/06/13 07:43:26;;;;;;;8.75;4.72;;;29.70;99.90;;;;;;5050872;28;20199;-60
2022/06/13 07:45:54;;;;;;;9.35;5.13;;;29.30;99.90;;;;;;5055233;28;20676;-61
2022/06/13 07:48:26;;;;;;;9.60;4.65;;;29.60;99.90;;;;;;5036811;28;20196;-60
2022/06/13 07:50:53;;;;;;;10.68;5.47;;;26.80;99.90;;;;;;5051533;28;20600;-60
2022/06/13 07:53:20;;;;;;;9.02;4.32;;;25.50;99.90;;;;;;5037663;28;20765;-60
2022/06/13 07:56:09;;;;;;;10.35;5.63;;;26.50;99.90;;;;;;5058181;28;20184;-60
2022/06/13 07:58:37;;;;;;;12.52;5.00;;;24.70;99.90;;;;;;5052374;28;20203;-59
2022/06/13 08:01:05;;;;;;;10.52;5.10;;;25.80;99.90;;;;;;5056817;28;20248;-60
2022/06/13 08:03:34;;;;;;;11.10;5.72;;;28.00;99.90;;;;;;5053954;28;20206;-59
2022/06/13 08:06:02;;;;;;;14.68;5.80;;;26.50;99.90;;;;;;5059191;28;20210;-59
2022/06/13 08:08:30;;;;;;;11.20;6.65;;;27.90;99.90;;;;;;5055251;28;20987;-60
2022/06/13 08:11:00;;;;;;;11.18;5.75;;;25.00;99.90;;;;;;5060533;28;20226;-59
2022/06/13 08:13:27;;;;;;;10.90;5.90;;;25.00;99.90;;;;;;5044172;28;20253;-59
2022/06/13 08:15:54;;;;;;;14.52;7.13;;;24.40;99.90;;;;;;5059936;28;20198;-59
2022/06/13 08:18:21;;;;;;;13.15;7.03;;;22.80;99.90;;;;;;5060556;28;20574;-58
2022/06/13 08:20:50;;;;;;;12.02;5.70;;;23.60;99.90;;;;;;5040918;28;20233;-59
2022/06/13 08:23:19;;;;;;;13.82;7.15;;;23.50;99.90;;;;;;5034354;28;20208;-59
2022/06/13 08:25:48;;;;;;;11.85;6.13;;;23.40;99.90;;;;;;5057068;28;20203;-60
2022/06/13 08:28:16;;;;;;;13.07;6.63;;;23.10;99.90;;;;;;5055598;28;20195;-60
2022/06/13 08:30:50;;;;;;;12.48;7.03;;;23.30;99.90;;;;;;5042770;28;20945;-60
2022/06/13 08:33:19;;;;;;;17.42;7.78;;;23.10;99.90;;;;;;5055973;28;20253;-60
2022/06/13 08:35:46;;;;;;;12.35;7.25;;;21.50;99.90;;;;;;5056729;28;20653;-60
2022/06/13 08:38:13;;;;;;;12.90;6.78;;;21.10;99.90;;;;;;5042368;28;20694;-60
2022/06/13 08:41:08;;;;;;;14.45;7.97;;;21.20;99.90;;;;;;5056019;28;20203;-59
2022/06/13 08:43:41;;;;;;;16.98;9.20;;;21.30;99.90;;;;;;5053730;28;20749;-63
2022/06/13 08:46:35;;;;;;;15.68;7.78;;;20.30;1.00;;;;;;5055326;28;20221;-61
2022/06/13 08:49:30;;;;;;;14.40;9.18;;;21.90;99.90;;;;;;5054080;28;20760;-59
2022/06/13 08:52:06;;;;;;;15.57;8.95;;;21.50;99.90;;;;;;5056092;28;20809;-59
2022/06/13 08:54:34;;;;;;;17.20;10.30;;;22.50;99.90;;;;;;5053991;28;20210;-59
2022/06/13 08:57:08;;;;;;;15.15;10.55;;;21.90;99.90;;;;;;5055888;28;20286;-60
2022/06/13 09:00:06;;;;;;;17.80;10.90;;;20.50;99.90;;;;;;5055401;28;20202;-60
2022/06/13 09:02:40;;;;;;;19.80;9.38;;;20.70;99.90;;;;;;5034886;28;20200;-59
2022/06/13 09:05:16;;;;;;;20.95;9.43;;;20.70;99.90;;;;;;5054427;28;20198;-60
2022/06/13 09:08:33;;;;;;;15.75;8.85;;;19.50;1.00;;;;;;5055881;28;20203;-60
2022/06/13 09:11:14;;;;;;;16.52;9.10;;;19.00;1.00;;;;;;5001754;28;20241;-60
2022/06/13 09:13:51;;;;;;;22.52;10.13;;;18.70;1.00;;;;;;5042791;28;20230;-61
2022/06/13 09:16:32;;;;;;;19.30;9.25;;;18.70;1.00;;;;;;5058092;28;20226;-61
2022/06/13 09:19:18;;;;;;;17.08;9.50;;;18.80;1.00;;;;;;5064315;28;20253;-60
2022/06/13 09:22:10;;;;;;;20.27;9.32;;;19.20;1.00;;;;;;5063147;28;20190;-60
2022/06/13 09:25:06;;;;;;;19.17;10.77;;;19.70;1.00;;;;;;5052992;28;20992;-59
2022/06/13 09:27:45;;;;;;;16.67;10.18;;;20.50;99.90;;;;;;5049634;28;20692;-59
2022/06/13 09:30:17;;;;;;;17.00;9.13;;;21.50;99.90;;;;;;5067037;28;20190;-59
2022/06/13 09:32:50;;;;;;;14.05;8.02;;;23.70;99.90;;;;;;5067051;28;20646;-60
2022/06/13 09:35:23;;;;;;;14.48;8.27;;;26.60;99.90;;;;;;5047619;28;20211;-60
2022/06/13 09:37:57;;;;;;;14.98;8.77;;;27.80;99.90;;;;;;5064121;28;20211;-60
2022/06/13 09:40:53;;;;;;;11.43;8.82;;;26.90;99.90;;;;;;5057690;28;20244;-59
2022/06/13 09:43:46;;;;;;;12.38;7.82;;;25.50;99.90;;;;;;5030925;28;20211;-60
2022/06/13 09:46:20;;;;;;;14.20;7.68;;;28.90;99.90;;;;;;5061475;28;20207;-60
2022/06/13 09:48:47;;;;;;;10.45;7.40;;;28.20;99.90;;;;;;5054136;28;20225;-59
2022/06/13 09:51:26;;;;;;;13.55;7.03;;;27.10;99.90;;;;;;5062304;28;20264;-60
2022/06/13 09:54:10;;;;;;;13.13;6.10;;;28.60;99.90;;;;;;5061157;28;20381;-60
2022/06/13 09:57:12;;;;;;;8.80;5.65;;;28.30;99.90;;;;;;5051171;28;20246;-60
2022/06/13 10:00:06;;;;;;;9.63;5.75;;;28.80;99.90;;;;;;5063394;28;20263;-60
2022/06/13 10:03:07;;;;;;;10.23;5.57;;;25.40;99.90;;;;;;5066156;28;20179;-60
2022/06/13 10:06:07;;;;;;;12.35;6.03;;;24.50;99.90;;;;;;5068635;28;20260;-60
2022/06/13 10:08:48;;;;;;;14.07;6.65;;;24.30;99.90;;;;;;5066274;28;20533;-60
2022/06/13 10:11:35;;;;;;;15.15;5.70;;;23.90;99.90;;;;;;5063703;28;20201;-60
2022/06/13 10:14:08;;;;;;;9.88;6.22;;;23.70;99.90;;;;;;5047461;28;20213;-60
2022/06/13 10:17:11;;;;;;;11.70;6.38;;;23.00;99.90;;;;;;5043887;28;20269;-60
2022/06/13 10:19:54;;;;;;;10.70;5.20;;;23.70;99.90;;;;;;5043550;28;20230;-60
2022/06/13 10:22:35;;;;;;;12.95;4.47;;;23.80;99.90;;;;;;5027581;28;20269;-60
2022/06/13 10:25:35;;;;;;;8.68;3.95;;;25.00;99.90;;;;;;5061208;28;20199;-59
2022/06/13 10:28:12;;;;;;;9.82;4.05;;;25.80;99.90;;;;;;5061168;28;20264;-60
2022/06/13 10:30:57;;;;;;;9.10;3.92;;;27.30;99.90;;;;;;5061968;28;20191;-60
2022/06/13 10:33:27;;;;;;;8.25;3.40;;;28.30;99.90;;;;;;5055618;28;20894;-60
2022/06/13 10:35:59;;;;;;;10.35;4.03;;;28.30;99.90;;;;;;5062170;28;20224;-60
2022/06/13 10:39:04;;;;;;;12.15;4.45;;;26.00;99.90;;;;;;5062462;28;20223;-60
2022/06/13 10:41:37;;;;;;;7.60;3.53;;;25.50;99.90;;;;;;4999079;28;20201;-60
2022/06/13 10:44:09;;;;;;;7.10;3.42;;;27.60;99.90;;;;;;5052751;28;20219;-60
2022/06/13 10:46:36;;;;;;;6.65;2.90;;;29.00;99.90;;;;;;5060831;28;20205;-59
2022/06/13 10:49:17;;;;;;;6.20;2.72;;;29.40;99.90;;;;;;5058754;28;20188;-59
2022/06/13 10:51:45;;;;;;;5.35;2.88;;;28.50;99.90;;;;;;5059650;28;20210;-59
2022/06/13 10:54:19;;;;;;;5.45;2.90;;;29.00;99.90;;;;;;5057347;28;20211;-61
2022/06/13 10:56:54;;;;;;;6.03;2.70;;;29.60;99.90;;;;;;5056324;28;20187;-60
2022/06/13 10:59:32;;;;;;;4.32;2.10;;;28.50;99.90;;;;;;5044205;28;20198;-60
2022/06/13 11:02:26;;;;;;;6.88;3.17;;;27.50;99.90;;;;;;5055970;28;20202;-60
2022/06/13 11:05:07;;;;;;;5.05;2.40;;;25.50;99.90;;;;;;5061033;28;20744;-60
2022/06/13 11:07:57;;;;;;;5.88;2.80;;;24.90;99.90;;;;;;5060800;28;20199;-60
2022/06/13 11:10:41;;;;;;;8.02;2.80;;;23.90;99.90;;;;;;5061389;28;20558;-60
2022/06/13 11:13:24;;;;;;;6.63;2.90;;;23.50;99.90;;;;;;5061800;28;20191;-60
2022/06/13 11:24:37;;;;;;;7.03;2.50;;;22.60;99.90;;;;;;5061320;28;20671;-60
2022/06/13 11:30:36;;;;;;;5.30;1.95;;;22.40;99.90;;;;;;5060740;28;20791;-60
2022/06/13 11:33:09;;;;;;;6.18;2.75;;;22.60;99.90;;;;;;5048946;28;20608;-60
2022/06/13 11:35:41;;;;;;;7.50;2.67;;;22.80;99.90;;;;;;5043223;28;20728;-60
2022/06/13 11:38:16;;;;;;;3.80;2.15;;;25.10;99.90;;;;;;5058341;28;20227;-59
2022/06/13 11:41:04;;;;;;;5.45;2.30;;;;;;;;;;5062960;28;20257;-60
2022/06/13 11:43:34;;;;;;;5.22;2.15;;;27.20;99.90;;;;;;5053942;28;20269;-59
2022/06/13 11:46:05;;;;;;;7.00;2.20;;;28.20;99.90;;;;;;5058015;28;20195;-60
2022/06/13 11:48:33;;;;;;;5.30;2.50;;;29.10;99.90;;;;;;5056599;28;21000;-60
2022/06/13 11:51:05;;;;;;;5.15;2.13;;;29.10;99.90;;;;;;5047759;28;20198;-60
2022/06/13 11:53:39;;;;;;;6.13;2.58;;;29.50;99.90;;;;;;5041407;28;20262;-60
2022/06/13 11:56:19;;;;;;;2.95;1.80;;;28.00;99.90;;;;;;5046256;28;20246;-59
2022/06/13 11:58:49;;;;;;;4.88;2.10;;;26.70;98.60;;;;;;5045605;28;20347;-60
2022/06/13 12:01:29;;;;;;;5.22;2.40;;;26.40;99.90;;;;;;5049959;28;20195;-59
2022/06/13 12:04:11;;;;;;;6.57;2.65;;;24.70;99.90;;;;;;5038445;28;20190;-60
2022/06/13 12:06:43;;;;;;;7.60;2.40;;;24.60;99.90;;;;;;5036158;28;20190;-59
2022/06/13 12:09:21;;;;;;;6.78;2.55;;;23.90;99.90;;;;;;5040089;28;21111;-59
2022/06/13 12:11:54;;;;;;;5.82;2.35;;;23.70;99.90;;;;;;5031219;28;20293;-61
2022/06/13 12:14:21;;;;;;;4.65;2.13;;;24.00;99.90;;;;;;5041237;28;20277;-59
2022/06/13 12:17:05;;;;;;;6.20;1.88;;;24.00;99.90;;;;;;5049465;28;20647;-60
2022/06/13 12:19:35;;;;;;;5.03;1.65;;;23.90;99.90;;;;;;5032784;28;20231;-60
2022/06/13 12:22:19;;;;;;;4.43;2.30;;;23.90;99.90;;;;;;5029894;28;20191;-59
2022/06/13 12:25:06;;;;;;;3.25;2.53;;;23.90;99.90;;;;;;5030360;28;20195;-59
2022/06/13 12:27:39;;;;;;;7.45;2.38;;;23.90;99.90;;;;;;5054767;28;20206;-60
2022/06/13 12:30:28;;;;;;;7.50;2.10;;;24.90;99.90;;;;;;5057393;28;20698;-59
2022/06/13 12:33:28;;;;;;;6.68;2.50;;;25.10;99.90;;;;;;5057061;28;20209;-59
2022/06/13 12:36:06;;;;;;;4.38;2.17;;;25.10;99.90;;;;;;5056254;28;20280;-59
2022/06/13 12:39:10;;;;;;;3.53;1.67;;;24.80;99.90;;;;;;5048828;28;20219;-59
2022/06/13 12:41:43;;;;;;;4.43;2.58;;;24.80;99.90;;;;;;5056332;28;20443;-59
2022/06/13 12:44:31;;;;;;;3.97;2.50;;;24.20;99.90;;;;;;5055559;28;20675;-59
2022/06/13 12:47:25;;;;;;;3.75;1.83;;;24.20;99.90;;;;;;5057467;28;20275;-59
2022/06/13 12:50:23;;;;;;;4.38;2.13;;;24.10;99.90;;;;;;5057483;28;20203;-60
2022/06/13 12:53:33;;;;;;;4.15;1.98;;;24.00;99.90;;;;;;5055440;28;20604;-60
2022/06/13 12:56:16;;;;;;;4.63;1.40;;;23.90;99.90;;;;;;5039969;28;20697;-59
2022/06/13 12:59:02;;;;;;;5.20;1.30;;;23.60;99.90;;;;;;5056952;28;20195;-59
2022/06/13 13:01:48;;;;;;;3.70;1.83;;;23.90;99.90;;;;;;5054619;28;20203;-59
2022/06/13 13:04:37;;;;;;;2.08;1.38;;;23.90;99.90;;;;;;5052839;28;20192;-61
2022/06/13 13:07:29;;;;;;;4.53;1.50;;;24.00;99.90;;;;;;5055662;28;20248;-60
2022/06/13 13:10:23;;;;;;;2.85;1.70;;;23.90;99.90;;;;;;5056425;28;20198;-60
2022/06/13 13:12:59;;;;;;;3.35;1.88;;;23.90;99.90;;;;;;5055589;28;20199;-60
2022/06/13 13:15:42;;;;;;;1.60;1.30;;;24.00;99.90;;;;;;5057320;28;20237;-60
2022/06/13 13:18:57;;;;;;;4.50;1.48;;;24.20;99.90;;;;;;5041242;28;20226;-59
2022/06/13 13:21:38;;;;;;;4.53;1.48;;;24.60;99.90;;;;;;5051530;28;20276;-60
2022/06/13 13:24:40;;;;;;;2.38;1.20;;;24.50;99.90;;;;;;5058261;28;20202;-60
2022/06/13 13:27:14;;;;;;;4.20;1.50;;;24.50;99.90;;;;;;5016881;28;20206;-60
2022/06/13 13:30:16;;;;;;;3.90;1.40;;;24.20;99.90;;;;;;5056073;28;20195;-60
2022/06/13 13:33:09;;;;;;;2.25;1.38;;;24.10;99.90;;;;;;5039606;28;20681;-60
2022/06/13 13:36:00;;;;;;;2.63;1.02;;;23.50;99.90;;;;;;5003569;28;20753;-60
2022/06/13 13:38:32;;;;;;;2.38;1.05;;;23.20;99.90;;;;;;5036060;28;20289;-60
2022/06/13 13:41:14;;;;;;;5.88;1.35;;;24.00;99.90;;;;;;5054129;28;20203;-60
2022/06/13 13:43:56;;;;;;;2.88;1.20;;;24.00;99.90;;;;;;5055388;28;20742;-59
2022/06/13 13:46:30;;;;;;;4.35;1.70;;;24.20;98.50;;;;;;5041999;28;20803;-59
2022/06/13 13:49:00;;;;;;;4.43;1.55;;;24.10;99.90;;;;;;5056935;28;20313;-59
2022/06/13 13:51:34;;;;;;;3.67;1.48;;;23.80;99.90;;;;;;5055707;28;20728;-60
2022/06/13 13:54:25;;;;;;;2.38;1.23;;;23.50;99.30;;;;;;5058804;28;20264;-60
2022/06/13 13:57:17;;;;;;;2.90;1.40;;;23.40;99.90;;;;;;5055373;28;20192;-60
2022/06/13 13:59:50;;;;;;;5.28;1.50;;;23.30;98.00;;;;;;5058327;28;20582;-61